Rhoose, United Kingdom
Current Conditions -  °F | °C
As of 1:20 AM on Thursday 23 Oct 2014 (Local Time) from EGFF Reporting Station
Overcast Overcast  
Wind Chill: 55°   Ceiling: 2400
Heat Index: 55°   Visibility: 6mi
Dew Point: 48°   Wind: 15mph
Humidity: 77%   Direction: 260°W
Pressure: 30.18"   Gusts: NA
Location:  51.39°N, 3.35°W
Report Text: EGFF 230020Z AUTO 26013KT 9999 OVC024 13/09 Q1022
Loading
Personal Weather Stations






























Interactive Weather Map
Tropical Storm Tracking
New forecast layout! Learn more

10-Day Weather Forecast

Advertisements
Track Severe Weather on mobile